Portada
METAR-TAF:

METAR-TAF

Aeroports :

Alpnach, Suïssa

latitud: 46-56-19N, longitud: 8-17-03E, altitud: 440 m

Observació

L'informe es va fer fa 18 minuts, a les 21:50 UTC
Vent 2 kt del Sud-Oest
Temperatura 17°C
Humitat 94%
Pressió 1020 hPa
Visibilitat: 6000 m

METAR: LSMA 242150Z AUTO 22002KT 6000NDV NCD 17/16 Q1020 RMK

Hora: 00:08 (22:08 UTC)


TAF: manca

Observacions i pronòstics meteorològics de més de 4000 aeroports (METAR i TAF).

Les estacions disponibles són els punts grocs i vermells al mapa.

Posi el ratolí al punt desitjat per veure el nom de l'estació.

Feu clic per veure les observacions i els pronòstics meteorològics.

Per canviar el mapa: feu clic els botons verds amb una creu de color negre per apropar; al botó verd amb un guió per allunyar la imatge; o en les fletxes verdes per a mapes adjacents.


METAR-TAF: